sensor_id;sensor_type;location;lat;lon;timestamp;P1;P2;P0
78063;PMS5003;67429;51.596;-3.264;2023-06-22T00:00:17;14;14;
78063;PMS5003;67429;51.596;-3.264;2023-06-22T00:02:43;10;10;
78063;PMS5003;67429;51.596;-3.264;2023-06-22T00:05:08;12;12;
78063;PMS5003;67429;51.596;-3.264;2023-06-22T00:07:34;9;9;
78063;PMS5003;67429;51.596;-3.264;2023-06-22T00:09:59;12;12;
78063;PMS5003;67429;51.596;-3.264;2023-06-22T00:12:25;11;11;
78063;PMS5003;67429;51.596;-3.264;2023-06-22T00:14:51;14;14;
78063;PMS5003;67429;51.596;-3.264;2023-06-22T00:17:16;9;8;
78063;PMS5003;67429;51.596;-3.264;2023-06-22T00:19:42;14;13;
78063;PMS5003;67429;51.596;-3.264;2023-06-22T00:22:07;11;10;
78063;PMS5003;67429;51.596;-3.264;2023-06-22T00:24:33;11;10;
78063;PMS5003;67429;51.596;-3.264;2023-06-22T00:26:58;12;11;
78063;PMS5003;67429;51.596;-3.264;2023-06-22T00:29:24;10;10;
78063;PMS5003;67429;51.596;-3.264;2023-06-22T00:31:50;11;11;
78063;PMS5003;67429;51.596;-3.264;2023-06-22T00:34:15;10;10;
78063;PMS5003;67429;51.596;-3.264;2023-06-22T00:36:41;14;13;
78063;PMS5003;67429;51.596;-3.264;2023-06-22T00:39:06;9;8;
78063;PMS5003;67429;51.596;-3.264;2023-06-22T00:41:32;9;8;
78063;PMS5003;67429;51.596;-3.264;2023-06-22T00:43:57;13;11;
78063;PMS5003;67429;51.596;-3.264;2023-06-22T00:46:23;9;9;
78063;PMS5003;67429;51.596;-3.264;2023-06-22T00:48:48;9;9;
78063;PMS5003;67429;51.596;-3.264;2023-06-22T00:51:14;9;9;
78063;PMS5003;67429;51.596;-3.264;2023-06-22T00:53:39;10;9;
78063;PMS5003;67429;51.596;-3.264;2023-06-22T00:56:04;13;12;
78063;PMS5003;67429;51.596;-3.264;2023-06-22T00:58:29;10;9;
78063;PMS5003;67429;51.596;-3.264;2023-06-22T01:00:55;8;8;
78063;PMS5003;67429;51.596;-3.264;2023-06-22T01:03:20;11;10;
78063;PMS5003;67429;51.596;-3.264;2023-06-22T01:05:46;11;11;
78063;PMS5003;67429;51.596;-3.264;2023-06-22T01:08:16;10;10;
78063;PMS5003;67429;51.596;-3.264;2023-06-22T01:10:39;12;11;
78063;PMS5003;67429;51.596;-3.264;2023-06-22T01:13:04;11;11;
78063;PMS5003;67429;51.596;-3.264;2023-06-22T01:15:30;12;11;
78063;PMS5003;67429;51.596;-3.264;2023-06-22T01:17:54;8;7;
78063;PMS5003;67429;51.596;-3.264;2023-06-22T01:20:20;11;10;
78063;PMS5003;67429;51.596;-3.264;2023-06-22T01:22:53;11;11;
78063;PMS5003;67429;51.596;-3.264;2023-06-22T01:25:12;13;11;
78063;PMS5003;67429;51.596;-3.264;2023-06-22T01:27:39;9;9;
78063;PMS5003;67429;51.596;-3.264;2023-06-22T01:30:02;12;12;
78063;PMS5003;67429;51.596;-3.264;2023-06-22T01:32:28;8;8;
78063;PMS5003;67429;51.596;-3.264;2023-06-22T01:34:52;11;10;
78063;PMS5003;67429;51.596;-3.264;2023-06-22T01:37:18;11;11;
78063;PMS5003;67429;51.596;-3.264;2023-06-22T01:39:43;12;11;
78063;PMS5003;67429;51.596;-3.264;2023-06-22T01:42:08;9;8;
78063;PMS5003;67429;51.596;-3.264;2023-06-22T01:44:34;12;10;
78063;PMS5003;67429;51.596;-3.264;2023-06-22T01:46:59;7;7;
78063;PMS5003;67429;51.596;-3.264;2023-06-22T01:49:25;11;10;
78063;PMS5003;67429;51.596;-3.264;2023-06-22T01:51:51;10;10;
78063;PMS5003;67429;51.596;-3.264;2023-06-22T01:54:16;10;10;
78063;PMS5003;67429;51.596;-3.264;2023-06-22T01:56:42;9;8;
78063;PMS5003;67429;51.596;-3.264;2023-06-22T01:59:09;7;7;
78063;PMS5003;67429;51.596;-3.264;2023-06-22T02:01:35;11;9;
78063;PMS5003;67429;51.596;-3.264;2023-06-22T02:04:01;11;9;
78063;PMS5003;67429;51.596;-3.264;2023-06-22T02:06:25;9;9;
78063;PMS5003;67429;51.596;-3.264;2023-06-22T02:08:51;10;10;
78063;PMS5003;67429;51.596;-3.264;2023-06-22T02:11:15;13;13;
78063;PMS5003;67429;51.596;-3.264;2023-06-22T02:13:40;10;10;
78063;PMS5003;67429;51.596;-3.264;2023-06-22T02:16:06;9;8;
78063;PMS5003;67429;51.596;-3.264;2023-06-22T02:18:31;9;9;
78063;PMS5003;67429;51.596;-3.264;2023-06-22T02:20:57;9;8;
78063;PMS5003;67429;51.596;-3.264;2023-06-22T02:23:22;10;9;
78063;PMS5003;67429;51.596;-3.264;2023-06-22T02:25:48;8;8;
78063;PMS5003;67429;51.596;-3.264;2023-06-22T02:28:13;9;9;
78063;PMS5003;67429;51.596;-3.264;2023-06-22T02:30:39;11;10;
78063;PMS5003;67429;51.596;-3.264;2023-06-22T02:33:04;10;10;
78063;PMS5003;67429;51.596;-3.264;2023-06-22T02:35:30;11;11;
78063;PMS5003;67429;51.596;-3.264;2023-06-22T02:37:55;10;10;
78063;PMS5003;67429;51.596;-3.264;2023-06-22T02:40:21;11;10;
78063;PMS5003;67429;51.596;-3.264;2023-06-22T02:42:46;11;11;
78063;PMS5003;67429;51.596;-3.264;2023-06-22T02:45:12;12;11;
78063;PMS5003;67429;51.596;-3.264;2023-06-22T02:47:38;8;8;
78063;PMS5003;67429;51.596;-3.264;2023-06-22T02:50:03;13;13;
78063;PMS5003;67429;51.596;-3.264;2023-06-22T02:52:28;10;10;
78063;PMS5003;67429;51.596;-3.264;2023-06-22T02:54:54;9;8;
78063;PMS5003;67429;51.596;-3.264;2023-06-22T02:57:19;12;10;
78063;PMS5003;67429;51.596;-3.264;2023-06-22T02:59:45;13;11;
78063;PMS5003;67429;51.596;-3.264;2023-06-22T03:02:10;11;11;
78063;PMS5003;67429;51.596;-3.264;2023-06-22T03:04:36;12;10;
78063;PMS5003;67429;51.596;-3.264;2023-06-22T03:07:01;13;12;
78063;PMS5003;67429;51.596;-3.264;2023-06-22T03:09:27;12;12;
78063;PMS5003;67429;51.596;-3.264;2023-06-22T03:11:52;12;12;
78063;PMS5003;67429;51.596;-3.264;2023-06-22T03:14:18;13;13;
78063;PMS5003;67429;51.596;-3.264;2023-06-22T03:16:43;12;12;
78063;PMS5003;67429;51.596;-3.264;2023-06-22T03:19:09;13;13;
78063;PMS5003;67429;51.596;-3.264;2023-06-22T03:21:34;12;12;
78063;PMS5003;67429;51.596;-3.264;2023-06-22T03:24:00;11;11;
78063;PMS5003;67429;51.596;-3.264;2023-06-22T03:26:25;16;15;
78063;PMS5003;67429;51.596;-3.264;2023-06-22T03:28:51;11;11;
78063;PMS5003;67429;51.596;-3.264;2023-06-22T03:31:16;15;14;
78063;PMS5003;67429;51.596;-3.264;2023-06-22T03:33:42;11;11;
78063;PMS5003;67429;51.596;-3.264;2023-06-22T03:36:07;11;11;
78063;PMS5003;67429;51.596;-3.264;2023-06-22T03:38:33;12;11;
78063;PMS5003;67429;51.596;-3.264;2023-06-22T03:40:58;12;11;
78063;PMS5003;67429;51.596;-3.264;2023-06-22T03:43:24;9;9;
78063;PMS5003;67429;51.596;-3.264;2023-06-22T03:45:49;9;9;
78063;PMS5003;67429;51.596;-3.264;2023-06-22T03:48:15;12;12;
78063;PMS5003;67429;51.596;-3.264;2023-06-22T03:50:40;11;11;
78063;PMS5003;67429;51.596;-3.264;2023-06-22T03:53:05;13;11;
78063;PMS5003;67429;51.596;-3.264;2023-06-22T03:55:31;11;11;
78063;PMS5003;67429;51.596;-3.264;2023-06-22T03:57:57;14;12;
78063;PMS5003;67429;51.596;-3.264;2023-06-22T04:00:22;12;11;
78063;PMS5003;67429;51.596;-3.264;2023-06-22T04:02:47;13;12;
78063;PMS5003;67429;51.596;-3.264;2023-06-22T04:05:13;13;12;
78063;PMS5003;67429;51.596;-3.264;2023-06-22T04:07:38;11;10;
78063;PMS5003;67429;51.596;-3.264;2023-06-22T04:10:04;14;13;
78063;PMS5003;67429;51.596;-3.264;2023-06-22T04:12:30;12;12;
78063;PMS5003;67429;51.596;-3.264;2023-06-22T04:14:55;11;11;
78063;PMS5003;67429;51.596;-3.264;2023-06-22T04:17:20;9;9;
78063;PMS5003;67429;51.596;-3.264;2023-06-22T04:19:45;10;10;
78063;PMS5003;67429;51.596;-3.264;2023-06-22T04:22:11;10;9;
78063;PMS5003;67429;51.596;-3.264;2023-06-22T04:24:37;12;12;
78063;PMS5003;67429;51.596;-3.264;2023-06-22T04:27:02;9;9;
78063;PMS5003;67429;51.596;-3.264;2023-06-22T04:29:28;10;9;
78063;PMS5003;67429;51.596;-3.264;2023-06-22T04:31:53;11;10;
78063;PMS5003;67429;51.596;-3.264;2023-06-22T04:34:19;11;11;
78063;PMS5003;67429;51.596;-3.264;2023-06-22T04:36:44;12;12;
78063;PMS5003;67429;51.596;-3.264;2023-06-22T04:39:10;8;8;
78063;PMS5003;67429;51.596;-3.264;2023-06-22T04:41:36;10;9;
78063;PMS5003;67429;51.596;-3.264;2023-06-22T04:44:01;11;11;
78063;PMS5003;67429;51.596;-3.264;2023-06-22T04:46:26;11;11;
78063;PMS5003;67429;51.596;-3.264;2023-06-22T04:48:52;12;12;
78063;PMS5003;67429;51.596;-3.264;2023-06-22T04:51:17;10;9;
78063;PMS5003;67429;51.596;-3.264;2023-06-22T04:53:43;8;8;
78063;PMS5003;67429;51.596;-3.264;2023-06-22T04:56:08;8;8;
78063;PMS5003;67429;51.596;-3.264;2023-06-22T04:58:34;12;11;
78063;PMS5003;67429;51.596;-3.264;2023-06-22T05:00:59;11;11;
78063;PMS5003;67429;51.596;-3.264;2023-06-22T05:03:25;11;11;
78063;PMS5003;67429;51.596;-3.264;2023-06-22T05:05:51;11;11;
78063;PMS5003;67429;51.596;-3.264;2023-06-22T05:08:16;11;10;
78063;PMS5003;67429;51.596;-3.264;2023-06-22T05:10:41;11;10;
78063;PMS5003;67429;51.596;-3.264;2023-06-22T05:13:07;9;8;
78063;PMS5003;67429;51.596;-3.264;2023-06-22T05:15:32;9;9;
78063;PMS5003;67429;51.596;-3.264;2023-06-22T05:17:58;9;8;
78063;PMS5003;67429;51.596;-3.264;2023-06-22T05:20:23;11;11;
78063;PMS5003;67429;51.596;-3.264;2023-06-22T05:22:49;9;8;
78063;PMS5003;67429;51.596;-3.264;2023-06-22T05:25:14;10;10;
78063;PMS5003;67429;51.596;-3.264;2023-06-22T05:27:40;9;9;
78063;PMS5003;67429;51.596;-3.264;2023-06-22T05:30:06;11;9;
78063;PMS5003;67429;51.596;-3.264;2023-06-22T05:32:31;7;7;
78063;PMS5003;67429;51.596;-3.264;2023-06-22T05:34:56;10;9;
78063;PMS5003;67429;51.596;-3.264;2023-06-22T05:37:22;8;8;
78063;PMS5003;67429;51.596;-3.264;2023-06-22T05:39:47;10;10;
78063;PMS5003;67429;51.596;-3.264;2023-06-22T05:42:13;7;6;
78063;PMS5003;67429;51.596;-3.264;2023-06-22T05:44:38;9;9;
78063;PMS5003;67429;51.596;-3.264;2023-06-22T05:47:03;10;10;
78063;PMS5003;67429;51.596;-3.264;2023-06-22T05:49:29;6;6;
78063;PMS5003;67429;51.596;-3.264;2023-06-22T05:51:55;9;9;
78063;PMS5003;67429;51.596;-3.264;2023-06-22T05:54:20;10;9;
78063;PMS5003;67429;51.596;-3.264;2023-06-22T05:56:46;7;7;
78063;PMS5003;67429;51.596;-3.264;2023-06-22T05:59:11;8;8;
78063;PMS5003;67429;51.596;-3.264;2023-06-22T06:01:36;8;8;
78063;PMS5003;67429;51.596;-3.264;2023-06-22T06:04:02;9;9;
78063;PMS5003;67429;51.596;-3.264;2023-06-22T06:06:27;7;7;
78063;PMS5003;67429;51.596;-3.264;2023-06-22T06:08:53;7;7;
78063;PMS5003;67429;51.596;-3.264;2023-06-22T06:11:18;6;6;
78063;PMS5003;67429;51.596;-3.264;2023-06-22T06:13:44;6;6;
78063;PMS5003;67429;51.596;-3.264;2023-06-22T06:16:09;7;7;
78063;PMS5003;67429;51.596;-3.264;2023-06-22T06:18:34;8;8;
78063;PMS5003;67429;51.596;-3.264;2023-06-22T06:21:00;8;7;
78063;PMS5003;67429;51.596;-3.264;2023-06-22T06:23:25;8;8;
78063;PMS5003;67429;51.596;-3.264;2023-06-22T06:25:51;5;5;
78063;PMS5003;67429;51.596;-3.264;2023-06-22T06:28:16;6;6;
78063;PMS5003;67429;51.596;-3.264;2023-06-22T06:30:42;5;5;
78063;PMS5003;67429;51.596;-3.264;2023-06-22T06:33:07;7;7;
78063;PMS5003;67429;51.596;-3.264;2023-06-22T06:35:33;7;7;
78063;PMS5003;67429;51.596;-3.264;2023-06-22T06:37:58;6;6;
78063;PMS5003;67429;51.596;-3.264;2023-06-22T06:40:23;7;7;
78063;PMS5003;67429;51.596;-3.264;2023-06-22T06:42:49;7;7;
78063;PMS5003;67429;51.596;-3.264;2023-06-22T06:45:17;7;7;
78063;PMS5003;67429;51.596;-3.264;2023-06-22T06:47:39;6;6;
78063;PMS5003;67429;51.596;-3.264;2023-06-22T06:50:05;7;7;
78063;PMS5003;67429;51.596;-3.264;2023-06-22T06:52:30;6;6;
78063;PMS5003;67429;51.596;-3.264;2023-06-22T06:54:56;8;8;
78063;PMS5003;67429;51.596;-3.264;2023-06-22T06:57:21;5;5;
78063;PMS5003;67429;51.596;-3.264;2023-06-22T06:59:47;6;6;
78063;PMS5003;67429;51.596;-3.264;2023-06-22T07:02:12;5;5;
78063;PMS5003;67429;51.596;-3.264;2023-06-22T07:04:37;9;7;
78063;PMS5003;67429;51.596;-3.264;2023-06-22T07:07:03;8;8;
78063;PMS5003;67429;51.596;-3.264;2023-06-22T07:09:28;7;7;
78063;PMS5003;67429;51.596;-3.264;2023-06-22T07:11:54;10;10;
78063;PMS5003;67429;51.596;-3.264;2023-06-22T07:14:19;11;11;
78063;PMS5003;67429;51.596;-3.264;2023-06-22T07:16:44;9;9;
78063;PMS5003;67429;51.596;-3.264;2023-06-22T07:19:10;6;6;
78063;PMS5003;67429;51.596;-3.264;2023-06-22T07:21:35;5;5;
78063;PMS5003;67429;51.596;-3.264;2023-06-22T07:24:00;7;7;
78063;PMS5003;67429;51.596;-3.264;2023-06-22T07:26:26;5;5;
78063;PMS5003;67429;51.596;-3.264;2023-06-22T07:28:51;7;7;
78063;PMS5003;67429;51.596;-3.264;2023-06-22T07:31:17;7;6;
78063;PMS5003;67429;51.596;-3.264;2023-06-22T07:33:42;7;7;
78063;PMS5003;67429;51.596;-3.264;2023-06-22T07:36:08;9;9;
78063;PMS5003;67429;51.596;-3.264;2023-06-22T07:38:33;8;8;
78063;PMS5003;67429;51.596;-3.264;2023-06-22T07:40:59;7;7;
78063;PMS5003;67429;51.596;-3.264;2023-06-22T07:43:24;8;7;
78063;PMS5003;67429;51.596;-3.264;2023-06-22T07:45:49;9;8;
78063;PMS5003;67429;51.596;-3.264;2023-06-22T07:48:15;9;9;
78063;PMS5003;67429;51.596;-3.264;2023-06-22T07:50:40;6;6;
78063;PMS5003;67429;51.596;-3.264;2023-06-22T07:53:06;7;7;
78063;PMS5003;67429;51.596;-3.264;2023-06-22T07:55:31;8;7;
78063;PMS5003;67429;51.596;-3.264;2023-06-22T07:57:56;9;9;
78063;PMS5003;67429;51.596;-3.264;2023-06-22T08:00:22;7;7;
78063;PMS5003;67429;51.596;-3.264;2023-06-22T08:02:47;6;6;
78063;PMS5003;67429;51.596;-3.264;2023-06-22T08:05:13;8;8;
78063;PMS5003;67429;51.596;-3.264;2023-06-22T08:07:38;8;7;
78063;PMS5003;67429;51.596;-3.264;2023-06-22T08:10:04;9;9;
78063;PMS5003;67429;51.596;-3.264;2023-06-22T08:12:29;7;7;
78063;PMS5003;67429;51.596;-3.264;2023-06-22T08:14:55;6;6;
78063;PMS5003;67429;51.596;-3.264;2023-06-22T08:17:20;8;8;
78063;PMS5003;67429;51.596;-3.264;2023-06-22T08:19:45;5;5;
78063;PMS5003;67429;51.596;-3.264;2023-06-22T08:22:10;7;7;
78063;PMS5003;67429;51.596;-3.264;2023-06-22T08:24:36;10;9;
78063;PMS5003;67429;51.596;-3.264;2023-06-22T08:27:01;9;9;
78063;PMS5003;67429;51.596;-3.264;2023-06-22T08:29:26;7;7;
78063;PMS5003;67429;51.596;-3.264;2023-06-22T08:31:52;7;7;
78063;PMS5003;67429;51.596;-3.264;2023-06-22T08:34:17;8;7;
78063;PMS5003;67429;51.596;-3.264;2023-06-22T08:36:42;6;6;
78063;PMS5003;67429;51.596;-3.264;2023-06-22T08:39:08;7;7;
78063;PMS5003;67429;51.596;-3.264;2023-06-22T08:41:33;5;5;
78063;PMS5003;67429;51.596;-3.264;2023-06-22T08:43:58;7;7;
78063;PMS5003;67429;51.596;-3.264;2023-06-22T08:46:24;5;5;
78063;PMS5003;67429;51.596;-3.264;2023-06-22T08:48:49;6;6;
78063;PMS5003;67429;51.596;-3.264;2023-06-22T08:51:15;7;7;
78063;PMS5003;67429;51.596;-3.264;2023-06-22T08:53:40;7;6;
78063;PMS5003;67429;51.596;-3.264;2023-06-22T08:56:05;7;7;
78063;PMS5003;67429;51.596;-3.264;2023-06-22T08:58:31;6;6;
78063;PMS5003;67429;51.596;-3.264;2023-06-22T09:00:56;6;6;
78063;PMS5003;67429;51.596;-3.264;2023-06-22T09:03:22;8;8;
78063;PMS5003;67429;51.596;-3.264;2023-06-22T09:05:47;6;6;
78063;PMS5003;67429;51.596;-3.264;2023-06-22T09:08:13;6;6;
78063;PMS5003;67429;51.596;-3.264;2023-06-22T09:10:38;8;8;
78063;PMS5003;67429;51.596;-3.264;2023-06-22T09:13:03;7;7;
78063;PMS5003;67429;51.596;-3.264;2023-06-22T09:15:29;6;6;
78063;PMS5003;67429;51.596;-3.264;2023-06-22T09:17:54;8;7;
78063;PMS5003;67429;51.596;-3.264;2023-06-22T09:20:19;9;9;
78063;PMS5003;67429;51.596;-3.264;2023-06-22T09:22:45;7;7;
78063;PMS5003;67429;51.596;-3.264;2023-06-22T09:25:10;9;9;
78063;PMS5003;67429;51.596;-3.264;2023-06-22T09:27:36;7;7;
78063;PMS5003;67429;51.596;-3.264;2023-06-22T09:30:01;8;8;
78063;PMS5003;67429;51.596;-3.264;2023-06-22T09:32:27;8;6;
78063;PMS5003;67429;51.596;-3.264;2023-06-22T09:34:52;5;4;
78063;PMS5003;67429;51.596;-3.264;2023-06-22T09:37:17;7;7;
78063;PMS5003;67429;51.596;-3.264;2023-06-22T09:39:42;8;8;
78063;PMS5003;67429;51.596;-3.264;2023-06-22T09:42:08;6;6;
78063;PMS5003;67429;51.596;-3.264;2023-06-22T09:44:33;6;6;
78063;PMS5003;67429;51.596;-3.264;2023-06-22T09:46:58;5;5;
78063;PMS5003;67429;51.596;-3.264;2023-06-22T09:49:24;5;5;
78063;PMS5003;67429;51.596;-3.264;2023-06-22T09:51:49;6;6;
78063;PMS5003;67429;51.596;-3.264;2023-06-22T09:54:14;7;6;
78063;PMS5003;67429;51.596;-3.264;2023-06-22T09:56:40;5;5;
78063;PMS5003;67429;51.596;-3.264;2023-06-22T09:59:05;6;6;
78063;PMS5003;67429;51.596;-3.264;2023-06-22T10:01:30;8;8;
78063;PMS5003;67429;51.596;-3.264;2023-06-22T10:03:56;7;7;
78063;PMS5003;67429;51.596;-3.264;2023-06-22T10:06:22;5;5;
78063;PMS5003;67429;51.596;-3.264;2023-06-22T10:08:47;6;6;
78063;PMS5003;67429;51.596;-3.264;2023-06-22T10:11:12;6;6;
78063;PMS5003;67429;51.596;-3.264;2023-06-22T10:13:38;7;5;
78063;PMS5003;67429;51.596;-3.264;2023-06-22T10:16:03;6;5;
78063;PMS5003;67429;51.596;-3.264;2023-06-22T10:18:28;6;6;
78063;PMS5003;67429;51.596;-3.264;2023-06-22T10:20:54;7;6;
78063;PMS5003;67429;51.596;-3.264;2023-06-22T10:23:19;6;6;
78063;PMS5003;67429;51.596;-3.264;2023-06-22T10:25:44;6;6;
78063;PMS5003;67429;51.596;-3.264;2023-06-22T10:28:10;7;6;
78063;PMS5003;67429;51.596;-3.264;2023-06-22T10:30:36;4;4;
78063;PMS5003;67429;51.596;-3.264;2023-06-22T10:33:00;4;4;
78063;PMS5003;67429;51.596;-3.264;2023-06-22T10:35:26;4;4;
78063;PMS5003;67429;51.596;-3.264;2023-06-22T10:37:52;6;6;
78063;PMS5003;67429;51.596;-3.264;2023-06-22T10:40:17;7;7;
78063;PMS5003;67429;51.596;-3.264;2023-06-22T10:42:42;6;6;
78063;PMS5003;67429;51.596;-3.264;2023-06-22T10:45:07;6;6;
78063;PMS5003;67429;51.596;-3.264;2023-06-22T10:47:32;7;7;
78063;PMS5003;67429;51.596;-3.264;2023-06-22T10:49:58;7;7;
78063;PMS5003;67429;51.596;-3.264;2023-06-22T10:52:23;5;5;
78063;PMS5003;67429;51.596;-3.264;2023-06-22T10:54:49;7;6;
78063;PMS5003;67429;51.596;-3.264;2023-06-22T10:57:14;11;11;
78063;PMS5003;67429;51.596;-3.264;2023-06-22T10:59:39;10;10;
78063;PMS5003;67429;51.596;-3.264;2023-06-22T11:02:05;11;11;
78063;PMS5003;67429;51.596;-3.264;2023-06-22T11:04:30;12;11;
78063;PMS5003;67429;51.596;-3.264;2023-06-22T11:06:55;9;9;
78063;PMS5003;67429;51.596;-3.264;2023-06-22T11:09:21;10;10;
78063;PMS5003;67429;51.596;-3.264;2023-06-22T11:11:46;12;12;
78063;PMS5003;67429;51.596;-3.264;2023-06-22T11:14:11;11;11;
78063;PMS5003;67429;51.596;-3.264;2023-06-22T11:16:37;12;12;
78063;PMS5003;67429;51.596;-3.264;2023-06-22T11:19:04;10;10;
78063;PMS5003;67429;51.596;-3.264;2023-06-22T11:21:27;10;9;
78063;PMS5003;67429;51.596;-3.264;2023-06-22T11:23:53;10;10;
78063;PMS5003;67429;51.596;-3.264;2023-06-22T11:26:18;11;11;
78063;PMS5003;67429;51.596;-3.264;2023-06-22T11:28:43;10;8;
78063;PMS5003;67429;51.596;-3.264;2023-06-22T11:31:08;12;10;
78063;PMS5003;67429;51.596;-3.264;2023-06-22T11:33:34;9;9;
78063;PMS5003;67429;51.596;-3.264;2023-06-22T11:35:59;10;10;
78063;PMS5003;67429;51.596;-3.264;2023-06-22T11:38:24;9;9;
78063;PMS5003;67429;51.596;-3.264;2023-06-22T11:40:50;8;8;
78063;PMS5003;67429;51.596;-3.264;2023-06-22T11:43:15;9;9;
78063;PMS5003;67429;51.596;-3.264;2023-06-22T11:45:40;8;8;
78063;PMS5003;67429;51.596;-3.264;2023-06-22T11:48:06;8;7;
78063;PMS5003;67429;51.596;-3.264;2023-06-22T11:50:31;8;8;
78063;PMS5003;67429;51.596;-3.264;2023-06-22T11:52:57;7;6;
78063;PMS5003;67429;51.596;-3.264;2023-06-22T11:55:22;7;7;
78063;PMS5003;67429;51.596;-3.264;2023-06-22T11:57:53;8;8;
78063;PMS5003;67429;51.596;-3.264;2023-06-22T12:00:13;6;6;
78063;PMS5003;67429;51.596;-3.264;2023-06-22T12:02:38;6;6;
78063;PMS5003;67429;51.596;-3.264;2023-06-22T12:05:03;6;6;
78063;PMS5003;67429;51.596;-3.264;2023-06-22T12:07:28;5;5;
78063;PMS5003;67429;51.596;-3.264;2023-06-22T12:09:54;7;6;
78063;PMS5003;67429;51.596;-3.264;2023-06-22T12:12:19;6;6;
78063;PMS5003;67429;51.596;-3.264;2023-06-22T12:14:45;6;6;
78063;PMS5003;67429;51.596;-3.264;2023-06-22T12:17:10;8;8;
78063;PMS5003;67429;51.596;-3.264;2023-06-22T12:19:35;7;7;
78063;PMS5003;67429;51.596;-3.264;2023-06-22T12:22:00;6;6;
78063;PMS5003;67429;51.596;-3.264;2023-06-22T12:24:26;6;6;
78063;PMS5003;67429;51.596;-3.264;2023-06-22T12:26:51;6;6;
78063;PMS5003;67429;51.596;-3.264;2023-06-22T12:29:17;9;8;
78063;PMS5003;67429;51.596;-3.264;2023-06-22T12:31:42;5;5;
78063;PMS5003;67429;51.596;-3.264;2023-06-22T12:34:07;5;5;
78063;PMS5003;67429;51.596;-3.264;2023-06-22T12:36:32;6;6;
78063;PMS5003;67429;51.596;-3.264;2023-06-22T12:38:58;6;6;
78063;PMS5003;67429;51.596;-3.264;2023-06-22T12:41:23;6;5;
78063;PMS5003;67429;51.596;-3.264;2023-06-22T12:43:48;7;7;
78063;PMS5003;67429;51.596;-3.264;2023-06-22T12:46:13;6;6;
78063;PMS5003;67429;51.596;-3.264;2023-06-22T12:48:39;8;7;
78063;PMS5003;67429;51.596;-3.264;2023-06-22T12:51:04;6;5;
78063;PMS5003;67429;51.596;-3.264;2023-06-22T12:53:30;5;5;
78063;PMS5003;67429;51.596;-3.264;2023-06-22T12:55:55;6;6;
78063;PMS5003;67429;51.596;-3.264;2023-06-22T12:58:20;6;6;
78063;PMS5003;67429;51.596;-3.264;2023-06-22T13:00:45;7;6;
78063;PMS5003;67429;51.596;-3.264;2023-06-22T13:03:11;5;5;
78063;PMS5003;67429;51.596;-3.264;2023-06-22T13:05:36;5;5;
78063;PMS5003;67429;51.596;-3.264;2023-06-22T13:08:01;5;5;
78063;PMS5003;67429;51.596;-3.264;2023-06-22T13:10:27;7;7;
78063;PMS5003;67429;51.596;-3.264;2023-06-22T13:12:52;6;6;
78063;PMS5003;67429;51.596;-3.264;2023-06-22T13:15:17;5;5;
78063;PMS5003;67429;51.596;-3.264;2023-06-22T13:17:43;5;5;
78063;PMS5003;67429;51.596;-3.264;2023-06-22T13:20:08;5;5;
78063;PMS5003;67429;51.596;-3.264;2023-06-22T13:22:34;6;6;
78063;PMS5003;67429;51.596;-3.264;2023-06-22T13:24:59;6;6;
78063;PMS5003;67429;51.596;-3.264;2023-06-22T13:27:24;5;5;
78063;PMS5003;67429;51.596;-3.264;2023-06-22T13:29:49;6;6;
78063;PMS5003;67429;51.596;-3.264;2023-06-22T13:32:14;7;6;
78063;PMS5003;67429;51.596;-3.264;2023-06-22T13:34:40;5;5;
78063;PMS5003;67429;51.596;-3.264;2023-06-22T13:37:05;6;6;
78063;PMS5003;67429;51.596;-3.264;2023-06-22T13:39:31;5;5;
78063;PMS5003;67429;51.596;-3.264;2023-06-22T13:41:56;7;6;
78063;PMS5003;67429;51.596;-3.264;2023-06-22T13:44:21;5;5;
78063;PMS5003;67429;51.596;-3.264;2023-06-22T13:46:46;4;4;
78063;PMS5003;67429;51.596;-3.264;2023-06-22T13:49:12;6;5;
78063;PMS5003;67429;51.596;-3.264;2023-06-22T13:51:37;5;5;
78063;PMS5003;67429;51.596;-3.264;2023-06-22T13:54:03;7;6;
78063;PMS5003;67429;51.596;-3.264;2023-06-22T13:56:28;4;4;
78063;PMS5003;67429;51.596;-3.264;2023-06-22T13:58:53;6;6;
78063;PMS5003;67429;51.596;-3.264;2023-06-22T14:01:19;5;5;
78063;PMS5003;67429;51.596;-3.264;2023-06-22T14:03:44;4;4;
78063;PMS5003;67429;51.596;-3.264;2023-06-22T14:06:09;3;3;
78063;PMS5003;67429;51.596;-3.264;2023-06-22T14:08:35;7;5;
78063;PMS5003;67429;51.596;-3.264;2023-06-22T14:10:59;5;5;
78063;PMS5003;67429;51.596;-3.264;2023-06-22T14:13:25;7;7;
78063;PMS5003;67429;51.596;-3.264;2023-06-22T14:15:50;5;5;
78063;PMS5003;67429;51.596;-3.264;2023-06-22T14:18:15;7;6;
78063;PMS5003;67429;51.596;-3.264;2023-06-22T14:20:41;6;5;
78063;PMS5003;67429;51.596;-3.264;2023-06-22T14:23:06;7;6;
78063;PMS5003;67429;51.596;-3.264;2023-06-22T14:25:31;8;7;
78063;PMS5003;67429;51.596;-3.264;2023-06-22T14:27:57;6;6;
78063;PMS5003;67429;51.596;-3.264;2023-06-22T14:30:22;6;6;
78063;PMS5003;67429;51.596;-3.264;2023-06-22T14:32:47;7;7;
78063;PMS5003;67429;51.596;-3.264;2023-06-22T14:35:13;5;5;
78063;PMS5003;67429;51.596;-3.264;2023-06-22T14:37:38;5;5;
78063;PMS5003;67429;51.596;-3.264;2023-06-22T14:40:04;4;3;
78063;PMS5003;67429;51.596;-3.264;2023-06-22T14:42:29;6;5;
78063;PMS5003;67429;51.596;-3.264;2023-06-22T14:44:54;6;5;
78063;PMS5003;67429;51.596;-3.264;2023-06-22T14:47:19;4;4;
78063;PMS5003;67429;51.596;-3.264;2023-06-22T14:49:45;7;7;
78063;PMS5003;67429;51.596;-3.264;2023-06-22T14:52:10;6;6;
78063;PMS5003;67429;51.596;-3.264;2023-06-22T14:54:35;4;4;
78063;PMS5003;67429;51.596;-3.264;2023-06-22T14:57:01;6;6;
78063;PMS5003;67429;51.596;-3.264;2023-06-22T14:59:26;6;6;
78063;PMS5003;67429;51.596;-3.264;2023-06-22T15:01:51;5;5;
78063;PMS5003;67429;51.596;-3.264;2023-06-22T15:04:17;5;5;
78063;PMS5003;67429;51.596;-3.264;2023-06-22T15:06:42;6;6;
78063;PMS5003;67429;51.596;-3.264;2023-06-22T15:09:07;6;6;
78063;PMS5003;67429;51.596;-3.264;2023-06-22T15:11:32;6;6;
78063;PMS5003;67429;51.596;-3.264;2023-06-22T15:13:58;6;6;
78063;PMS5003;67429;51.596;-3.264;2023-06-22T15:16:23;7;7;
78063;PMS5003;67429;51.596;-3.264;2023-06-22T15:18:48;7;7;
78063;PMS5003;67429;51.596;-3.264;2023-06-22T15:21:14;8;7;
78063;PMS5003;67429;51.596;-3.264;2023-06-22T15:23:39;7;7;
78063;PMS5003;67429;51.596;-3.264;2023-06-22T15:26:04;6;6;
78063;PMS5003;67429;51.596;-3.264;2023-06-22T15:28:30;4;4;
78063;PMS5003;67429;51.596;-3.264;2023-06-22T15:30:55;6;6;
78063;PMS5003;67429;51.596;-3.264;2023-06-22T15:33:21;6;6;
78063;PMS5003;67429;51.596;-3.264;2023-06-22T15:35:46;7;7;
78063;PMS5003;67429;51.596;-3.264;2023-06-22T15:38:11;6;6;
78063;PMS5003;67429;51.596;-3.264;2023-06-22T15:40:37;7;7;
78063;PMS5003;67429;51.596;-3.264;2023-06-22T15:43:02;7;7;
78063;PMS5003;67429;51.596;-3.264;2023-06-22T15:45:28;9;8;
78063;PMS5003;67429;51.596;-3.264;2023-06-22T15:47:53;6;6;
78063;PMS5003;67429;51.596;-3.264;2023-06-22T15:50:18;8;8;
78063;PMS5003;67429;51.596;-3.264;2023-06-22T15:52:43;6;5;
78063;PMS5003;67429;51.596;-3.264;2023-06-22T15:55:09;7;6;
78063;PMS5003;67429;51.596;-3.264;2023-06-22T15:57:34;7;6;
78063;PMS5003;67429;51.596;-3.264;2023-06-22T16:00:00;7;7;
78063;PMS5003;67429;51.596;-3.264;2023-06-22T16:02:25;9;8;
78063;PMS5003;67429;51.596;-3.264;2023-06-22T16:04:50;6;6;
78063;PMS5003;67429;51.596;-3.264;2023-06-22T16:07:15;7;6;
78063;PMS5003;67429;51.596;-3.264;2023-06-22T16:09:41;5;5;